createdAt,value
2022-11-05T00:23:13.546Z,96134.09
2022-11-05T01:09:26.554Z,96188.72
2022-11-05T01:11:55.225Z,96193.50
2022-11-05T01:14:22.970Z,96189.13
2022-11-05T01:16:50.584Z,96190.06
2022-11-05T01:19:18.143Z,96203.19
2022-11-05T01:21:44.966Z,96196.84
2022-11-05T01:24:11.771Z,96194.59
2022-11-05T01:26:41.072Z,96193.63
2022-11-05T01:29:08.130Z,96192.56
2022-11-05T01:31:37.270Z,96193.19
2022-11-05T01:34:06.826Z,96193.59
2022-11-05T01:36:33.645Z,96195.91
2022-11-05T01:39:00.938Z,96197.91
2022-11-05T01:41:27.508Z,96196.09
2022-11-05T01:43:55.108Z,96194.84
2022-11-05T01:46:21.669Z,96203.97
2022-11-05T01:48:48.927Z,96204.44
2022-11-05T01:51:22.703Z,96202.28
2022-11-05T01:53:56.737Z,96201.41
2022-11-05T01:56:23.587Z,96205.13
2022-11-05T01:58:50.315Z,96205.84
2022-11-05T02:01:17.125Z,96218.88
2022-11-05T02:03:44.040Z,96216.22
2022-11-05T02:06:17.647Z,96210.44
2022-11-05T02:08:44.466Z,96208.19
2022-11-05T02:11:11.806Z,96209.00
2022-11-05T02:13:40.607Z,96203.81
2022-11-05T02:16:07.889Z,96220.19
2022-11-05T02:18:34.761Z,96217.44
2022-11-05T02:21:02.113Z,96222.94
2022-11-05T02:23:28.978Z,96229.78
2022-11-05T02:25:55.940Z,96228.81
2022-11-05T02:28:22.976Z,96234.09
2022-11-05T02:30:50.382Z,96238.34
2022-11-05T02:33:16.979Z,96238.78
2022-11-05T02:35:48.157Z,96236.88
2022-11-05T02:38:15.051Z,96235.88
2022-11-05T02:40:42.067Z,96246.19
2022-11-05T02:43:09.906Z,96245.31
2022-11-05T02:45:36.679Z,96246.41
2022-11-05T02:48:06.039Z,96246.28
2022-11-05T02:50:32.985Z,96252.50
2022-11-05T02:52:59.919Z,96249.50
2022-11-05T02:55:38.161Z,96250.31
2022-11-05T02:58:04.951Z,96264.63
2022-11-05T03:00:38.968Z,96267.88
2022-11-05T03:03:05.926Z,96268.59
2022-11-05T03:05:32.767Z,96274.50
2022-11-05T03:08:06.889Z,96273.25
2022-11-05T03:10:40.867Z,96276.50
2022-11-05T03:13:08.218Z,96285.31
2022-11-05T03:15:35.089Z,96278.03
2022-11-05T03:18:01.653Z,96277.38
2022-11-05T03:20:28.389Z,96281.22
2022-11-05T03:22:55.146Z,96278.94
2022-11-05T03:25:23.769Z,96283.38
2022-11-05T03:27:51.026Z,96277.16
2022-11-05T03:30:18.377Z,96282.59
2022-11-05T03:32:52.639Z,96285.00
2022-11-05T03:35:21.097Z,96296.66
2022-11-05T03:37:47.937Z,96294.34
2022-11-05T03:40:15.247Z,96300.53
2022-11-05T03:42:45.226Z,96298.53
2022-11-05T03:45:13.445Z,96303.84
2022-11-05T03:47:41.819Z,96304.88
2022-11-05T03:50:08.614Z,96312.75
2022-11-05T03:52:35.440Z,96313.16
2022-11-05T03:55:02.312Z,96315.06
2022-11-05T03:57:29.664Z,96308.09
2022-11-05T03:59:56.548Z,96314.84
2022-11-05T04:02:23.915Z,96321.94
2022-11-05T04:04:53.230Z,96315.00
2022-11-05T04:07:19.819Z,96313.06
2022-11-05T04:09:47.397Z,96323.25
2022-11-05T04:12:14.239Z,96321.81
2022-11-05T04:15:00.873Z,96317.78
2022-11-05T04:17:37.627Z,96332.94
2022-11-05T04:20:04.448Z,96334.25
2022-11-05T04:22:30.970Z,96325.06
2022-11-05T04:24:58.817Z,96325.31
2022-11-05T04:27:26.156Z,96327.41
2022-11-05T04:29:54.428Z,96333.78
2022-11-05T04:32:21.101Z,96331.16
2022-11-05T04:34:48.419Z,96326.59
2022-11-05T04:37:22.525Z,96335.69
2022-11-05T04:39:49.098Z,96339.50
2022-11-05T04:42:15.925Z,96329.91
2022-11-05T04:44:42.741Z,96341.41
2022-11-05T04:47:09.287Z,96337.94
2022-11-05T04:49:37.730Z,96345.25
2022-11-05T04:52:04.305Z,96343.38
2022-11-05T04:54:31.296Z,96346.72
2022-11-05T04:56:58.212Z,96351.00
2022-11-05T04:59:25.178Z,96351.84
2022-11-05T05:01:52.796Z,96348.06
2022-11-05T05:04:20.265Z,96351.06
2022-11-05T05:06:47.675Z,96361.28
2022-11-05T05:09:15.131Z,96359.72
2022-11-05T05:11:42.455Z,96366.53
2022-11-05T05:14:09.270Z,96363.72
2022-11-05T05:16:36.662Z,96366.22
2022-11-05T05:19:03.509Z,96361.75
2022-11-05T05:21:30.948Z,96365.53
2022-11-05T05:23:57.828Z,96364.97
2022-11-05T05:26:24.651Z,96375.53
2022-11-05T05:28:58.845Z,96369.00
2022-11-05T05:31:26.392Z,96373.47
2022-11-05T05:33:53.552Z,96371.69
2022-11-05T05:36:21.093Z,96386.63
2022-11-05T05:38:47.880Z,96386.16
2022-11-05T05:41:15.457Z,96384.50
2022-11-05T05:43:42.732Z,96380.53
2022-11-05T05:46:09.480Z,96383.81
2022-11-05T05:48:43.518Z,96389.47
2022-11-05T05:51:10.684Z,96386.56
2022-11-05T05:53:37.573Z,96383.97
2022-11-05T05:56:06.790Z,96384.28
2022-11-05T06:04:50.497Z,96402.50
2022-11-05T06:07:24.826Z,96401.28
2022-11-05T06:09:51.789Z,96409.41
2022-11-05T06:12:20.638Z,96414.31
2022-11-05T06:14:49.118Z,96413.25
2022-11-05T06:17:16.442Z,96410.19
2022-11-05T06:19:43.288Z,96412.56
2022-11-05T06:22:10.211Z,96414.44
2022-11-05T06:24:38.598Z,96415.91
2022-11-05T06:27:06.913Z,96413.16
2022-11-05T06:54:25.941Z,96436.94
2022-11-05T07:00:50.901Z,96453.28
2022-11-05T07:03:25.320Z,96454.56
2022-11-05T07:05:53.473Z,96451.91
2022-11-05T07:08:20.352Z,96458.41
2022-11-05T07:10:50.401Z,96456.91
2022-11-05T07:13:21.112Z,96470.81
2022-11-05T07:15:48.070Z,96477.34
2022-11-05T07:18:15.374Z,96473.75
2022-11-05T07:20:42.787Z,96479.34
2022-11-05T07:23:10.655Z,96479.06
2022-11-05T07:25:37.787Z,96486.28
2022-11-05T07:28:05.334Z,96490.69
2022-11-05T07:30:32.437Z,96489.44
2022-11-05T07:33:13.239Z,96494.47
2022-11-05T07:35:42.236Z,96488.06
2022-11-05T07:38:09.166Z,96495.75
2022-11-05T07:40:36.022Z,96499.50
2022-11-05T07:43:03.082Z,96502.72
2022-11-05T07:45:30.685Z,96505.19
2022-11-05T07:47:58.377Z,96511.13
2022-11-05T07:50:27.096Z,96512.03
2022-11-05T07:52:53.967Z,96511.63
2022-11-05T07:55:34.600Z,96519.84
2022-11-05T07:58:01.620Z,96523.34
2022-11-05T08:00:29.048Z,96527.25
2022-11-05T08:02:55.813Z,96531.41
2022-11-05T08:05:26.313Z,96525.84
2022-11-05T08:07:53.024Z,96524.56
2022-11-05T08:10:25.221Z,96528.44
2022-11-05T08:12:53.055Z,96536.13
2022-11-05T08:15:20.065Z,96539.50
2022-11-05T08:17:49.231Z,96541.75
2022-11-05T08:20:17.438Z,96541.28
2022-11-05T08:22:44.543Z,96545.53
2022-11-05T08:25:11.957Z,96548.75
2022-11-05T08:27:42.534Z,96545.47
2022-11-05T08:30:12.840Z,96545.38
2022-11-05T08:32:44.101Z,96550.59
2022-11-05T08:35:12.947Z,96549.88
2022-11-05T08:37:40.409Z,96547.91
2022-11-05T08:40:07.673Z,96556.47
2022-11-05T08:42:34.593Z,96556.22
2022-11-05T08:45:01.759Z,96554.81
2022-11-05T08:47:29.555Z,96562.00
2022-11-05T08:49:56.341Z,96567.81
2022-11-05T08:52:24.071Z,96558.88
2022-11-05T08:54:53.037Z,96564.81
2022-11-05T08:57:24.995Z,96561.25
2022-11-05T08:59:51.749Z,96556.16
2022-11-05T09:02:18.735Z,96561.00
2022-11-05T09:04:48.587Z,96561.03
2022-11-05T09:07:16.097Z,96565.38
2022-11-05T09:09:42.830Z,96570.75
2022-11-05T09:12:12.576Z,96562.97
2022-11-05T09:14:40.591Z,96578.31
2022-11-05T09:17:07.842Z,96571.50
2022-11-05T09:19:39.630Z,96579.56
2022-11-05T09:22:06.812Z,96582.28
2022-11-05T09:24:33.771Z,96583.94
2022-11-05T09:27:02.057Z,96578.75
2022-11-05T09:29:28.590Z,96591.97
2022-11-05T09:32:03.706Z,96587.50
2022-11-05T09:34:31.467Z,96582.88
2022-11-05T09:36:58.838Z,96586.44
2022-11-05T09:39:30.093Z,96583.16
2022-11-05T09:41:59.115Z,96578.44
2022-11-05T09:44:26.681Z,96577.31
2022-11-05T09:46:53.710Z,96588.13
2022-11-05T09:49:20.278Z,96587.94
2022-11-05T09:55:03.517Z,96585.91
2022-11-05T09:57:32.095Z,96597.41
2022-11-05T10:00:00.083Z,96602.88
2022-11-05T10:02:28.692Z,96594.88
2022-11-05T10:04:56.389Z,96605.22
2022-11-05T10:07:23.670Z,96596.63
2022-11-05T10:10:24.967Z,96603.22
2022-11-05T10:13:00.773Z,96603.31
2022-11-05T10:15:28.386Z,96605.81
2022-11-05T10:20:39.797Z,96604.47
2022-11-05T10:23:10.746Z,96603.63
2022-11-05T10:25:39.107Z,96609.44
2022-11-05T10:28:13.664Z,96604.19
2022-11-05T10:30:48.893Z,96605.66
2022-11-05T10:36:00.590Z,96603.69
2022-11-05T10:38:29.028Z,96609.84
2022-11-05T10:49:42.892Z,96604.38
2022-11-05T10:52:10.662Z,96600.94
2022-11-05T10:54:40.745Z,96595.09
2022-11-05T10:57:11.243Z,96604.47
2022-11-05T10:59:38.239Z,96599.66
2022-11-05T11:04:47.276Z,96590.97
2022-11-05T11:07:15.234Z,96586.19
2022-11-05T11:09:42.214Z,96587.09
2022-11-05T11:12:09.975Z,96588.06
2022-11-05T11:14:37.587Z,96595.88
2022-11-05T11:17:05.375Z,96585.22
2022-11-05T11:19:36.256Z,96582.38
2022-11-05T11:22:05.318Z,96577.69
2022-11-05T11:24:35.683Z,96584.88
2022-11-05T11:27:02.427Z,96585.50
2022-11-05T11:29:30.043Z,96589.59
2022-11-05T11:32:07.677Z,96588.72
2022-11-05T11:34:37.763Z,96584.00
2022-11-05T11:37:05.591Z,96589.94
2022-11-05T11:39:33.185Z,96581.03
2022-11-05T11:42:00.140Z,96580.69
2022-11-05T11:47:10.229Z,96574.94
2022-11-05T11:49:39.995Z,96568.41
2022-11-05T11:52:07.401Z,96577.00
2022-11-05T11:54:34.535Z,96573.84
2022-11-05T11:57:15.294Z,96588.91
2022-11-05T12:00:07.667Z,96580.81
2022-11-05T12:02:33.984Z,96583.72
2022-11-05T12:05:02.117Z,96587.56
2022-11-05T12:07:29.184Z,96580.50
2022-11-05T12:09:58.654Z,96566.00
2022-11-05T12:12:29.088Z,96561.44
2022-11-05T12:14:56.684Z,96553.41
2022-11-05T12:17:23.531Z,96564.84
2022-11-05T12:19:50.520Z,96564.97
2022-11-05T12:22:19.440Z,96566.41
2022-11-05T12:24:49.383Z,96563.66
2022-11-05T12:29:57.895Z,96568.28
2022-11-05T12:32:25.625Z,96569.50
2022-11-05T12:34:56.557Z,96570.31
2022-11-05T12:37:23.438Z,96564.59
2022-11-05T12:39:57.913Z,96558.78
2022-11-05T12:42:29.619Z,96564.38
2022-11-05T12:44:57.767Z,96552.47
2022-11-05T12:47:26.899Z,96560.34
2022-11-05T12:49:53.792Z,96562.31
2022-11-05T12:52:20.642Z,96565.88
2022-11-05T12:54:48.224Z,96560.19
2022-11-05T12:57:15.075Z,96554.69
2022-11-05T12:59:42.527Z,96553.41
2022-11-05T13:02:10.325Z,96554.41
2022-11-05T13:04:43.387Z,96562.06
2022-11-05T13:07:12.946Z,96563.81
2022-11-05T13:09:43.481Z,96563.75
2022-11-05T13:12:15.102Z,96558.25
2022-11-05T13:14:41.853Z,96557.91
2022-11-05T13:17:08.731Z,96567.13
2022-11-05T13:19:37.247Z,96563.22
2022-11-05T13:22:04.221Z,96564.47
2022-11-05T13:24:32.332Z,96565.84
2022-11-05T13:27:06.994Z,96553.84
2022-11-05T13:29:34.499Z,96547.44
2022-11-05T13:32:03.292Z,96549.75
2022-11-05T13:34:37.287Z,96549.09
2022-11-05T13:37:08.775Z,96555.56
2022-11-05T13:42:30.416Z,96562.22
2022-11-05T13:44:57.355Z,96559.75
2022-11-05T13:47:26.530Z,96560.03
2022-11-05T13:49:56.918Z,96559.09
2022-11-05T13:52:24.043Z,96556.91
2022-11-05T13:54:53.764Z,96562.06
2022-11-05T13:57:22.586Z,96556.88
2022-11-05T13:59:50.395Z,96559.56
2022-11-05T14:02:17.388Z,96553.78
2022-11-05T14:04:44.116Z,96557.69
2022-11-05T14:07:11.018Z,96550.09
2022-11-05T14:09:38.378Z,96561.16
2022-11-05T14:12:05.909Z,96549.28
2022-11-05T14:14:36.816Z,96543.88
2022-11-05T14:17:07.214Z,96542.59
2022-11-05T14:19:34.727Z,96541.09
2022-11-05T14:22:03.200Z,96537.91
2022-11-05T14:24:30.984Z,96536.56
2022-11-05T14:26:59.677Z,96535.75
2022-11-05T14:29:28.469Z,96538.78
2022-11-05T14:32:08.728Z,96542.75
2022-11-05T14:34:36.028Z,96550.56
2022-11-05T14:37:02.943Z,96539.06
2022-11-05T14:39:30.086Z,96543.63
2022-11-05T14:41:59.165Z,96534.31
2022-11-05T14:44:26.546Z,96536.34
2022-11-05T14:46:56.269Z,96543.25
2022-11-05T14:49:24.665Z,96536.91
2022-11-05T14:51:51.623Z,96541.75
2022-11-05T14:57:11.777Z,96544.03
2022-11-05T14:59:39.737Z,96557.38
2022-11-05T15:02:06.761Z,96550.69
2022-11-05T15:04:37.400Z,96562.50
2022-11-05T15:07:15.775Z,96553.06
2022-11-05T15:09:50.867Z,96551.72
2022-11-05T15:12:21.610Z,96551.84
2022-11-05T15:17:33.292Z,96554.97
2022-11-05T15:26:34.497Z,96547.78
2022-11-05T15:29:40.583Z,96544.31
2022-11-05T15:31:58.074Z,96541.41
2022-11-05T15:34:24.949Z,96533.97
2022-11-05T15:36:51.760Z,96545.72
2022-11-05T15:42:35.658Z,96534.44
2022-11-05T15:45:06.464Z,96538.91
2022-11-05T15:50:38.734Z,96543.31
2022-11-05T15:53:28.326Z,96547.34
2022-11-05T15:56:00.303Z,96550.16
2022-11-05T16:01:17.608Z,96557.03
2022-11-05T16:03:47.688Z,96564.13
2022-11-05T16:06:15.775Z,96553.44
2022-11-05T16:08:43.349Z,96548.81
2022-11-05T16:13:39.510Z,96547.16
2022-11-05T16:16:06.446Z,96539.13
2022-11-05T16:18:34.310Z,96541.63
2022-11-05T16:21:01.227Z,96544.94
2022-11-05T16:23:33.144Z,96537.78
2022-11-05T16:26:02.451Z,96539.13
2022-11-05T16:28:31.075Z,96536.25
2022-11-05T16:31:00.121Z,96537.56
2022-11-05T16:36:42.575Z,96538.38
2022-11-05T16:39:10.404Z,96538.78
2022-11-05T16:41:40.236Z,96554.50
2022-11-05T16:44:13.552Z,96538.69
2022-11-05T16:46:45.207Z,96541.34
2022-11-05T16:49:14.589Z,96556.47
2022-11-05T16:51:55.668Z,96565.25
2022-11-05T16:54:38.801Z,96559.56
2022-11-05T16:57:08.427Z,96560.72
2022-11-05T16:59:35.929Z,96559.19
2022-11-05T17:02:03.103Z,96578.03
2022-11-05T17:07:41.322Z,96581.72
2022-11-05T17:10:09.362Z,96581.56
2022-11-05T17:16:00.382Z,96579.13
2022-11-05T17:18:37.327Z,96580.94
2022-11-05T17:40:10.007Z,96577.50
2022-11-05T17:55:19.370Z,96589.00
2022-11-05T18:07:12.606Z,96575.16
2022-11-05T18:21:17.441Z,96554.09
2022-11-05T18:26:15.699Z,96560.81
2022-11-05T18:31:29.425Z,96573.81
2022-11-05T18:33:58.678Z,96572.91
2022-11-05T18:36:27.332Z,96581.06
2022-11-05T18:38:55.218Z,96571.34
2022-11-05T18:41:25.833Z,96580.88
2022-11-05T18:43:56.369Z,96576.47
2022-11-05T18:46:51.327Z,96581.19
2022-11-05T18:49:12.349Z,96586.19
2022-11-05T18:51:46.433Z,96587.22
2022-11-05T18:54:19.402Z,96585.13
2022-11-05T18:56:48.469Z,96588.41
2022-11-05T19:02:07.187Z,96579.19
2022-11-05T19:04:35.541Z,96574.75
2022-11-05T19:10:23.419Z,96573.44
2022-11-05T19:12:50.056Z,96570.06
2022-11-05T19:15:22.401Z,96572.22
2022-11-05T19:17:49.941Z,96580.16
2022-11-05T19:20:20.691Z,96587.50
2022-11-05T19:22:47.893Z,96599.00
2022-11-05T19:25:14.531Z,96592.28
2022-11-05T19:30:32.537Z,96586.22
2022-11-05T19:33:04.503Z,96582.66
2022-11-05T19:35:32.914Z,96585.69
2022-11-05T19:38:01.619Z,96597.88
2022-11-05T19:40:29.265Z,96591.06
2022-11-05T19:43:04.672Z,96581.41
2022-11-05T19:45:49.069Z,96581.75
2022-11-05T19:48:19.832Z,96579.13
2022-11-05T19:50:49.795Z,96586.53
2022-11-05T19:53:16.931Z,96595.84
2022-11-05T19:55:46.193Z,96599.28
2022-11-05T19:58:13.543Z,96601.66
2022-11-05T20:00:42.572Z,96599.66
2022-11-05T20:06:11.221Z,96604.34
2022-11-05T20:09:15.292Z,96600.88
2022-11-05T20:11:41.554Z,96595.06
2022-11-05T20:14:08.933Z,96595.72
2022-11-05T20:16:44.842Z,96594.22
2022-11-05T20:22:05.151Z,96599.59
2022-11-05T20:24:33.033Z,96597.78
2022-11-05T20:29:42.362Z,96591.16
2022-11-05T20:32:19.064Z,96597.63
2022-11-05T20:34:47.174Z,96581.69
2022-11-05T20:37:17.061Z,96583.56
2022-11-05T20:39:44.893Z,96581.75
2022-11-05T20:42:17.913Z,96589.84
2022-11-05T20:47:36.978Z,96595.31
2022-11-05T20:50:04.624Z,96600.94
2022-11-05T20:55:48.910Z,96596.88
2022-11-05T20:58:22.396Z,96608.53
2022-11-05T21:00:50.466Z,96601.69
2022-11-05T21:06:27.616Z,96609.94
2022-11-05T21:08:55.975Z,96602.78
2022-11-05T21:11:25.044Z,96609.97
2022-11-05T21:13:52.744Z,96602.53
2022-11-05T21:21:50.917Z,96612.97
2022-11-05T21:37:06.116Z,96620.91
2022-11-05T21:59:33.687Z,96641.63
2022-11-05T22:05:23.905Z,96652.34
2022-11-05T22:07:52.555Z,96659.66
